createdAt,value
2017-05-13T00:01:53.102Z,100133.13
2017-05-13T00:04:20.606Z,100135.56
2017-05-13T00:06:48.165Z,100125.16
2017-05-13T00:09:15.722Z,100127.45
2017-05-13T00:11:43.257Z,100121.01
2017-05-13T00:14:10.895Z,100123.86
2017-05-13T00:16:38.441Z,100123.78
2017-05-13T00:19:06.356Z,100130.46
2017-05-13T00:21:33.891Z,100130.85
2017-05-13T00:24:01.436Z,100132.98
2017-05-13T00:26:29.001Z,100131.11
2017-05-13T00:28:56.525Z,100127.86
2017-05-13T00:31:24.148Z,100124.52
2017-05-13T00:33:51.690Z,100129.77
2017-05-13T00:36:19.231Z,100126.02
2017-05-13T00:38:46.795Z,100132.22
2017-05-13T00:41:14.700Z,100124.19
2017-05-13T00:43:42.226Z,100130.33
2017-05-13T00:46:09.763Z,100125.23
2017-05-13T00:48:37.306Z,100127.06
2017-05-13T00:51:04.836Z,100127.28
2017-05-13T00:53:32.432Z,100129.22
2017-05-13T00:55:59.995Z,100132.44
2017-05-13T00:58:27.585Z,100129.41
2017-05-13T01:00:55.140Z,100136.74
2017-05-13T01:03:22.660Z,100129.50
2017-05-13T01:05:50.492Z,100132.41
2017-05-13T01:08:18.021Z,100134.80
2017-05-13T01:10:45.549Z,100139.34
2017-05-13T01:13:13.113Z,100138.81
2017-05-13T01:15:40.660Z,100136.99
2017-05-13T01:18:08.625Z,100132.61
2017-05-13T01:20:36.177Z,100138.11
2017-05-13T01:23:03.719Z,100135.00
2017-05-13T01:25:31.287Z,100141.84
2017-05-13T01:27:58.840Z,100138.17
2017-05-13T01:30:26.728Z,100133.42
2017-05-13T01:32:54.243Z,100142.88
2017-05-13T01:35:21.772Z,100145.37
2017-05-13T01:37:49.333Z,100141.52
2017-05-13T01:40:16.916Z,100142.94
2017-05-13T01:42:44.440Z,100140.28
2017-05-13T01:45:11.964Z,100146.69
2017-05-13T01:47:39.552Z,100149.66
2017-05-13T01:50:07.363Z,100160.22
2017-05-13T01:52:34.853Z,100163.73
2017-05-13T01:55:02.394Z,100169.95
2017-05-13T01:57:29.946Z,100171.72
2017-05-13T01:59:57.473Z,100177.70
2017-05-13T02:02:25.302Z,100179.75
2017-05-13T02:04:52.827Z,100184.62
2017-05-13T02:07:20.352Z,100187.32
2017-05-13T02:09:47.913Z,100189.77
2017-05-13T02:12:15.435Z,100190.03
2017-05-13T02:14:43.171Z,100190.79
2017-05-13T02:17:10.705Z,100184.48
2017-05-13T02:19:38.260Z,100188.21
2017-05-13T02:22:06.180Z,100189.09
2017-05-13T02:24:33.696Z,100178.47
2017-05-13T02:27:01.284Z,100175.98
2017-05-13T02:29:28.856Z,100181.71
2017-05-13T02:31:56.412Z,100188.52
2017-05-13T02:34:23.972Z,100182.56
2017-05-13T02:36:51.595Z,100192.64
2017-05-13T02:39:19.411Z,100189.96
2017-05-13T02:41:47.005Z,100195.76
2017-05-13T02:44:14.535Z,100199.05
2017-05-13T02:46:42.139Z,100194.38
2017-05-13T02:49:09.715Z,100187.80
2017-05-13T02:51:37.500Z,100189.93
2017-05-13T02:54:05.076Z,100191.45
2017-05-13T02:56:32.709Z,100186.61
2017-05-13T02:59:00.334Z,100192.27
2017-05-13T03:01:27.912Z,100199.19
2017-05-13T03:03:55.548Z,100210.30
2017-05-13T03:06:23.072Z,100207.88
2017-05-13T03:08:50.736Z,100211.38
2017-05-13T03:11:18.433Z,100211.75
2017-05-13T03:13:45.959Z,100221.59
2017-05-13T03:16:13.835Z,100224.67
2017-05-13T03:18:41.357Z,100229.58
2017-05-13T03:21:08.926Z,100226.05
2017-05-13T03:23:36.467Z,100229.27
2017-05-13T03:26:03.994Z,100232.88
2017-05-13T03:28:31.531Z,100232.41
2017-05-13T03:30:59.071Z,100244.25
2017-05-13T03:33:26.975Z,100246.42
2017-05-13T03:35:54.507Z,100248.38
2017-05-13T03:38:22.033Z,100255.16
2017-05-13T03:40:49.611Z,100254.06
2017-05-13T03:43:17.197Z,100260.23
2017-05-13T03:45:45.009Z,100264.54
2017-05-13T03:48:12.569Z,100267.45
2017-05-13T03:50:40.119Z,100268.93
2017-05-13T03:53:07.715Z,100265.35
2017-05-13T03:55:35.255Z,100262.42
2017-05-13T03:58:03.069Z,100257.37
2017-05-13T04:00:30.618Z,100259.44
2017-05-13T04:02:58.151Z,100261.88
2017-05-13T04:05:25.704Z,100260.60
2017-05-13T04:07:53.233Z,100272.41
2017-05-13T04:10:20.792Z,100269.84
2017-05-13T04:12:48.370Z,100273.94
2017-05-13T04:15:16.184Z,100275.81
2017-05-13T04:17:43.703Z,100277.47
2017-05-13T04:20:11.244Z,100284.80
2017-05-13T04:22:38.820Z,100290.59
2017-05-13T04:25:06.345Z,100293.66
2017-05-13T04:27:33.904Z,100296.00
2017-05-13T04:30:01.434Z,100292.26
2017-05-13T04:32:29.273Z,100295.50
2017-05-13T04:34:56.802Z,100305.84
2017-05-13T04:37:24.330Z,100312.65
2017-05-13T04:39:51.889Z,100320.33
2017-05-13T04:42:19.408Z,100320.25
2017-05-13T04:44:47.378Z,100327.42
2017-05-13T04:47:14.905Z,100338.27
2017-05-13T04:49:42.434Z,100335.77
2017-05-13T04:52:09.993Z,100336.53
2017-05-13T04:54:37.531Z,100337.74
2017-05-13T04:57:05.080Z,100334.91
2017-05-13T04:59:32.607Z,100344.75
2017-05-13T05:02:00.459Z,100345.61
2017-05-13T05:04:27.989Z,100349.45
2017-05-13T05:06:55.536Z,100344.40
2017-05-13T05:09:23.107Z,100350.69
2017-05-13T05:11:50.634Z,100355.83
2017-05-13T05:14:18.215Z,100348.00
2017-05-13T05:16:45.744Z,100351.09
2017-05-13T05:19:13.288Z,100350.47
2017-05-13T05:21:40.831Z,100349.31
2017-05-13T05:24:08.399Z,100358.06
2017-05-13T05:26:35.956Z,100359.35
2017-05-13T05:29:03.873Z,100361.27
2017-05-13T05:31:31.407Z,100366.05
2017-05-13T05:33:58.932Z,100365.66
2017-05-13T05:36:26.492Z,100363.98
2017-05-13T05:38:54.024Z,100370.17
2017-05-13T05:41:21.945Z,100370.46
2017-05-13T05:43:49.476Z,100370.82
2017-05-13T05:46:17.089Z,100379.25
2017-05-13T05:48:44.660Z,100380.29
2017-05-13T05:51:12.268Z,100382.95
2017-05-13T05:53:40.269Z,100389.75
2017-05-13T05:56:07.804Z,100388.14
2017-05-13T05:58:35.431Z,100390.44
2017-05-13T06:01:03.034Z,100391.57
2017-05-13T06:03:30.563Z,100389.84
2017-05-13T06:05:58.124Z,100392.38
2017-05-13T06:08:25.643Z,100399.00
2017-05-13T06:10:53.231Z,100393.88
2017-05-13T06:13:20.868Z,100404.70
2017-05-13T06:15:48.446Z,100405.62
2017-05-13T06:18:16.024Z,100405.74
2017-05-13T06:20:43.549Z,100418.41
2017-05-13T06:23:11.217Z,100410.31
2017-05-13T06:25:38.839Z,100420.90
2017-05-13T06:28:06.448Z,100415.70
2017-05-13T06:30:34.029Z,100423.23
2017-05-13T06:33:01.686Z,100422.03
2017-05-13T06:35:29.255Z,100418.95
2017-05-13T06:37:56.786Z,100419.88
2017-05-13T06:40:24.416Z,100431.06
2017-05-13T06:42:51.931Z,100426.61
2017-05-13T06:45:19.496Z,100435.77
2017-05-13T06:47:47.012Z,100431.00
2017-05-13T06:50:14.537Z,100437.91
2017-05-13T06:52:42.068Z,100439.55
2017-05-13T06:55:09.587Z,100436.16
2017-05-13T06:57:37.144Z,100443.64
2017-05-13T07:00:04.660Z,100451.29
2017-05-13T07:02:32.219Z,100463.02
2017-05-13T07:04:59.730Z,100461.02
2017-05-13T07:07:27.249Z,100460.56
2017-05-13T07:09:54.808Z,100465.70
2017-05-13T07:12:22.349Z,100463.16
2017-05-13T07:14:49.906Z,100464.98
2017-05-13T07:17:17.433Z,100466.52
2017-05-13T07:19:45.274Z,100467.41
2017-05-13T07:22:12.794Z,100472.76
2017-05-13T07:24:40.303Z,100481.47
2017-05-13T07:27:08.228Z,100479.69
2017-05-13T07:29:35.844Z,100478.49
2017-05-13T07:32:03.381Z,100483.93
2017-05-13T07:34:31.256Z,100491.34
2017-05-13T07:36:58.787Z,100497.01
2017-05-13T07:39:26.310Z,100506.33
2017-05-13T07:41:53.887Z,100506.15
2017-05-13T07:44:21.512Z,100509.59
2017-05-13T07:46:49.051Z,100508.13
2017-05-13T07:49:16.630Z,100509.62
2017-05-13T07:51:44.176Z,100516.85
2017-05-13T07:54:11.699Z,100521.48
2017-05-13T07:56:39.249Z,100523.31
2017-05-13T07:59:06.771Z,100528.92
2017-05-13T08:01:34.664Z,100539.05
2017-05-13T08:04:02.184Z,100540.70
2017-05-13T08:06:29.758Z,100534.58
2017-05-13T08:08:57.400Z,100536.81
2017-05-13T08:11:24.924Z,100538.36
2017-05-13T08:13:52.982Z,100535.25
2017-05-13T08:16:20.478Z,100534.84
2017-05-13T08:18:48.049Z,100546.98
2017-05-13T08:21:15.655Z,100545.98
2017-05-13T08:23:43.220Z,100545.78
2017-05-13T08:26:10.783Z,100549.13
2017-05-13T08:28:38.352Z,100551.02
2017-05-13T08:31:06.253Z,100554.30
2017-05-13T08:33:33.763Z,100560.70
2017-05-13T08:36:01.279Z,100560.45
2017-05-13T08:38:28.808Z,100566.90
2017-05-13T08:40:56.336Z,100564.99
2017-05-13T08:43:23.895Z,100569.94
2017-05-13T08:45:51.422Z,100574.42
2017-05-13T08:48:18.987Z,100570.05
2017-05-13T08:50:46.637Z,100567.98
2017-05-13T08:53:14.331Z,100571.94
2017-05-13T08:55:41.842Z,100582.11
2017-05-13T08:58:09.384Z,100579.87
2017-05-13T09:00:36.936Z,100584.66
2017-05-13T09:03:04.632Z,100585.31
2017-05-13T09:05:32.428Z,100586.25
2017-05-13T09:08:00.036Z,100587.86
2017-05-13T09:10:27.547Z,100588.34
2017-05-13T09:12:55.107Z,100594.70
2017-05-13T09:15:22.637Z,100595.60
2017-05-13T09:17:50.216Z,100597.20
2017-05-13T09:20:17.745Z,100598.30
2017-05-13T09:22:45.502Z,100597.98
2017-05-13T09:25:13.012Z,100601.95
2017-05-13T09:27:40.521Z,100602.98
2017-05-13T09:30:08.083Z,100599.19
2017-05-13T09:32:35.612Z,100599.65
2017-05-13T09:35:03.177Z,100595.31
2017-05-13T09:37:30.824Z,100597.00
2017-05-13T09:39:58.510Z,100598.97
2017-05-13T09:42:26.056Z,100591.34
2017-05-13T09:44:53.737Z,100590.27
2017-05-13T09:47:21.288Z,100589.69
2017-05-13T09:49:48.839Z,100591.20
2017-05-13T09:52:16.477Z,100590.63
2017-05-13T09:54:44.075Z,100588.83
2017-05-13T09:57:11.664Z,100591.88
2017-05-13T09:59:39.183Z,100596.03
2017-05-13T10:02:06.888Z,100606.18
2017-05-13T10:04:34.408Z,100598.94
2017-05-13T10:07:01.971Z,100597.47
2017-05-13T10:09:29.544Z,100602.52
2017-05-13T10:11:57.060Z,100597.41
2017-05-13T10:14:24.628Z,100593.33
2017-05-13T10:16:52.255Z,100593.95
2017-05-13T10:19:19.911Z,100594.84
2017-05-13T10:21:47.495Z,100593.68
2017-05-13T10:24:15.220Z,100598.25
2017-05-13T10:26:42.754Z,100596.72
2017-05-13T10:29:10.272Z,100600.30
2017-05-13T10:31:37.871Z,100605.59
2017-05-13T10:34:05.374Z,100609.34
2017-05-13T10:36:33.031Z,100604.59
2017-05-13T10:39:00.542Z,100603.66
2017-05-13T10:41:28.299Z,100603.17
2017-05-13T10:43:55.828Z,100600.24
2017-05-13T10:46:23.497Z,100594.38
2017-05-13T10:48:51.031Z,100592.06
2017-05-13T10:51:18.575Z,100597.58
2017-05-13T10:53:46.184Z,100601.38
2017-05-13T10:56:13.775Z,100603.83
2017-05-13T10:58:41.340Z,100603.34
2017-05-13T11:01:08.956Z,100606.69
2017-05-13T11:03:36.580Z,100608.86
2017-05-13T11:06:04.151Z,100600.69
2017-05-13T11:08:31.915Z,100606.03
2017-05-13T11:10:59.481Z,100606.83
2017-05-13T11:13:27.000Z,100603.00
2017-05-13T11:15:54.559Z,100600.31
2017-05-13T11:18:22.085Z,100609.33
2017-05-13T11:20:49.801Z,100606.89
2017-05-13T11:23:17.441Z,100602.72
2017-05-13T11:25:44.969Z,100617.05
2017-05-13T11:28:12.523Z,100612.59
2017-05-13T11:30:40.103Z,100606.87
2017-05-13T11:33:07.692Z,100612.41
2017-05-13T11:35:35.206Z,100613.19
2017-05-13T11:38:02.783Z,100612.92
2017-05-13T11:40:30.304Z,100612.41
2017-05-13T11:42:58.224Z,100612.64
2017-05-13T11:45:25.753Z,100610.78
2017-05-13T11:47:53.349Z,100608.20
2017-05-13T11:50:20.964Z,100613.25
2017-05-13T11:52:48.558Z,100615.09
2017-05-13T11:55:16.441Z,100616.50
2017-05-13T11:57:43.967Z,100614.56
2017-05-13T12:00:11.490Z,100608.98
2017-05-13T12:02:39.035Z,100617.45
2017-05-13T12:05:06.555Z,100618.48
2017-05-13T12:07:34.126Z,100609.98
2017-05-13T12:10:01.635Z,100614.80
2017-05-13T12:12:29.600Z,100614.95
2017-05-13T12:14:57.106Z,100612.59
2017-05-13T12:17:24.619Z,100613.41
2017-05-13T12:19:52.164Z,100615.86
2017-05-13T12:22:19.671Z,100619.28
2017-05-13T12:24:47.694Z,100623.76
2017-05-13T12:27:15.225Z,100623.04
2017-05-13T12:29:42.747Z,100630.52
2017-05-13T12:32:10.377Z,100642.91
2017-05-13T12:34:37.902Z,100634.48
2017-05-13T12:37:05.438Z,100635.42
2017-05-13T12:39:32.963Z,100627.74
2017-05-13T12:42:00.533Z,100634.41
2017-05-13T12:44:28.062Z,100630.34
2017-05-13T12:46:55.623Z,100625.89
2017-05-13T12:49:23.146Z,100624.14
2017-05-13T12:51:51.012Z,100625.69
2017-05-13T12:54:18.541Z,100638.79
2017-05-13T12:56:46.056Z,100630.89
2017-05-13T12:59:13.610Z,100632.95
2017-05-13T13:01:41.165Z,100623.42
2017-05-13T13:04:08.711Z,100633.95
2017-05-13T13:06:36.240Z,100630.22
2017-05-13T13:09:04.174Z,100629.64
2017-05-13T13:11:31.734Z,100626.22
2017-05-13T13:13:59.250Z,100619.16
2017-05-13T13:16:26.843Z,100621.84
2017-05-13T13:18:54.356Z,100616.64
2017-05-13T13:21:22.329Z,100611.42
2017-05-13T13:23:49.855Z,100614.42
2017-05-13T13:26:17.412Z,100617.13
2017-05-13T13:28:44.971Z,100619.28
2017-05-13T13:31:12.489Z,100607.52
2017-05-13T13:33:40.067Z,100608.36
2017-05-13T13:36:07.579Z,100608.61
2017-05-13T13:38:35.106Z,100607.70
2017-05-13T13:41:02.668Z,100605.70
2017-05-13T13:43:30.191Z,100607.50
2017-05-13T13:45:57.749Z,100606.89
2017-05-13T13:48:25.283Z,100608.21
2017-05-13T13:50:53.128Z,100606.59
2017-05-13T13:53:20.638Z,100614.65
2017-05-13T13:55:48.157Z,100607.75
2017-05-13T13:58:15.986Z,100613.07
2017-05-13T14:00:43.519Z,100615.58
2017-05-13T14:03:11.045Z,100618.34
2017-05-13T14:05:38.587Z,100614.95
2017-05-13T14:08:06.107Z,100613.79
2017-05-13T14:10:33.644Z,100616.52
2017-05-13T14:13:01.187Z,100613.13
2017-05-13T14:15:29.019Z,100600.75
2017-05-13T14:17:56.544Z,100608.76
2017-05-13T14:20:24.060Z,100611.42
2017-05-13T14:22:51.642Z,100613.33
2017-05-13T14:25:19.174Z,100606.66
2017-05-13T14:27:46.722Z,100608.91
2017-05-13T14:30:14.259Z,100599.17
2017-05-13T14:32:41.941Z,100600.08
2017-05-13T14:35:09.456Z,100602.62
2017-05-13T14:37:36.984Z,100597.17
2017-05-13T14:40:04.540Z,100598.70
2017-05-13T14:42:32.060Z,100606.51
2017-05-13T14:44:59.594Z,100598.58
2017-05-13T14:47:27.120Z,100597.91
2017-05-13T14:49:55.074Z,100602.58
2017-05-13T14:52:22.591Z,100598.30
2017-05-13T14:54:50.110Z,100607.83
2017-05-13T14:57:17.659Z,100612.23
2017-05-13T14:59:45.207Z,100612.14
2017-05-13T15:02:12.724Z,100610.86
2017-05-13T15:04:40.282Z,100611.98
2017-05-13T15:07:08.268Z,100614.00
2017-05-13T15:09:35.771Z,100608.38
2017-05-13T15:12:03.295Z,100611.34
2017-05-13T15:14:30.852Z,100609.55
2017-05-13T15:16:58.374Z,100612.38
2017-05-13T15:19:26.047Z,100610.41
2017-05-13T15:21:53.561Z,100609.48
2017-05-13T15:24:21.082Z,100619.05
2017-05-13T15:26:48.761Z,100622.22
2017-05-13T15:29:16.284Z,100626.56
2017-05-13T15:31:43.807Z,100630.58
2017-05-13T15:34:11.545Z,100631.17
2017-05-13T15:36:39.092Z,100632.14
2017-05-13T15:39:06.608Z,100633.75
2017-05-13T15:41:34.194Z,100626.77
2017-05-13T15:44:01.722Z,100633.27
2017-05-13T15:46:29.423Z,100638.07
2017-05-13T15:48:56.931Z,100637.91
2017-05-13T15:51:24.439Z,100642.00
2017-05-13T15:53:52.007Z,100637.45
2017-05-13T15:56:19.527Z,100644.48
2017-05-13T15:58:47.187Z,100643.40
2017-05-13T16:01:14.798Z,100652.26
2017-05-13T16:03:42.384Z,100649.52
2017-05-13T16:06:10.100Z,100661.52
2017-05-13T16:08:37.631Z,100664.73
2017-05-13T16:11:05.140Z,100674.41
2017-05-13T16:13:32.970Z,100665.62
2017-05-13T16:16:00.487Z,100664.42
2017-05-13T16:18:28.006Z,100665.44
2017-05-13T16:20:55.675Z,100672.60
2017-05-13T16:23:23.183Z,100670.07
2017-05-13T16:25:50.755Z,100673.88
2017-05-13T16:28:18.327Z,100683.96
2017-05-13T16:30:45.864Z,100681.64
2017-05-13T16:33:13.774Z,100682.84
2017-05-13T16:35:41.297Z,100693.72
2017-05-13T16:38:08.823Z,100697.55
2017-05-13T16:40:36.387Z,100698.88
2017-05-13T16:43:03.983Z,100696.86
2017-05-13T16:45:31.647Z,100704.26
2017-05-13T16:47:59.193Z,100705.36
2017-05-13T16:50:26.735Z,100706.50
2017-05-13T16:52:54.311Z,100701.36
2017-05-13T16:55:21.837Z,100711.86
2017-05-13T16:57:49.539Z,100712.51
2017-05-13T17:00:17.111Z,100705.69
2017-05-13T17:02:44.704Z,100713.40
2017-05-13T17:05:12.283Z,100710.50
2017-05-13T17:07:39.791Z,100714.70
2017-05-13T17:10:07.481Z,100714.05
2017-05-13T17:12:35.535Z,100716.09
2017-05-13T17:15:03.065Z,100716.02
2017-05-13T17:17:30.625Z,100724.52
2017-05-13T17:19:58.147Z,100726.88
2017-05-13T17:22:25.723Z,100725.47
2017-05-13T17:24:53.241Z,100726.49
2017-05-13T17:27:20.800Z,100728.59
2017-05-13T17:29:48.320Z,100731.94
2017-05-13T17:32:15.854Z,100728.03
2017-05-13T17:34:43.592Z,100729.44
2017-05-13T17:37:11.128Z,100730.97
2017-05-13T17:39:38.658Z,100732.50
2017-05-13T17:42:06.375Z,100737.78
2017-05-13T17:44:33.879Z,100734.52
2017-05-13T17:47:01.396Z,100739.81
2017-05-13T17:49:28.949Z,100747.28
2017-05-13T17:51:56.483Z,100741.65
2017-05-13T17:54:24.192Z,100747.14
2017-05-13T17:56:51.709Z,100752.47
2017-05-13T17:59:19.219Z,100755.36
2017-05-13T18:01:46.780Z,100761.78
2017-05-13T18:04:14.337Z,100762.53
2017-05-13T18:06:42.208Z,100769.13
2017-05-13T18:09:09.750Z,100769.81
2017-05-13T18:11:37.267Z,100773.35
2017-05-13T18:14:04.932Z,100783.25
2017-05-13T18:16:32.456Z,100781.34
2017-05-13T18:18:59.990Z,100789.95
2017-05-13T18:21:27.572Z,100789.98
2017-05-13T18:23:55.097Z,100790.34
2017-05-13T18:26:22.662Z,100793.38
2017-05-13T18:28:50.198Z,100801.06
2017-05-13T18:31:17.864Z,100797.59
2017-05-13T18:33:45.471Z,100804.14
2017-05-13T18:36:12.983Z,100806.52
2017-05-13T18:38:40.591Z,100812.39
2017-05-13T18:41:08.124Z,100811.89
2017-05-13T18:43:35.968Z,100821.45
2017-05-13T18:46:03.488Z,100819.38
2017-05-13T18:48:31.022Z,100825.98
2017-05-13T18:50:58.732Z,100829.29
2017-05-13T18:53:26.242Z,100837.03
2017-05-13T18:55:53.801Z,100849.83
2017-05-13T18:58:21.415Z,100863.86
2017-05-13T19:00:48.929Z,100880.11
2017-05-13T19:03:16.780Z,100887.75
2017-05-13T19:05:44.313Z,100890.55
2017-05-13T19:08:11.817Z,100895.11
2017-05-13T19:10:39.334Z,100893.45
2017-05-13T19:13:06.942Z,100898.00
2017-05-13T19:15:34.781Z,100903.60
2017-05-13T19:18:02.299Z,100908.09
2017-05-13T19:20:29.963Z,100913.73
2017-05-13T19:22:57.808Z,100915.02
2017-05-13T19:25:25.351Z,100919.42
2017-05-13T19:27:52.887Z,100928.76
2017-05-13T19:30:20.588Z,100931.19
2017-05-13T19:32:48.111Z,100934.78
2017-05-13T19:35:15.638Z,100941.10
2017-05-13T19:37:43.200Z,100955.41
2017-05-13T19:40:10.723Z,100963.44
2017-05-13T19:42:38.280Z,100967.27
2017-05-13T19:45:05.812Z,100981.52
2017-05-13T19:47:33.479Z,100977.13
2017-05-13T19:50:01.000Z,100999.23
2017-05-13T19:52:28.532Z,100993.91
2017-05-13T19:54:56.102Z,101000.80
2017-05-13T19:57:23.635Z,101008.83
2017-05-13T19:59:51.324Z,101007.56
2017-05-13T20:02:18.858Z,101013.81
2017-05-13T20:04:46.369Z,101011.96
2017-05-13T20:07:13.937Z,101016.86
2017-05-13T20:09:41.468Z,101022.33
2017-05-13T20:12:09.048Z,101029.66
2017-05-13T20:14:36.605Z,101034.16
2017-05-13T20:17:04.543Z,101034.95
2017-05-13T20:19:32.073Z,101040.98
2017-05-13T20:21:59.632Z,101037.69
2017-05-13T20:24:27.224Z,101037.43
2017-05-13T20:26:54.788Z,101049.80
2017-05-13T20:29:22.343Z,101053.97
2017-05-13T20:31:49.886Z,101062.64
2017-05-13T20:34:17.788Z,101052.93
2017-05-13T20:36:45.305Z,101050.84
2017-05-13T20:39:12.849Z,101058.25
2017-05-13T20:41:40.419Z,101062.78
2017-05-13T20:44:07.952Z,101063.87
2017-05-13T20:46:35.612Z,101061.94
2017-05-13T20:49:03.140Z,101059.09
2017-05-13T20:51:30.656Z,101068.33
2017-05-13T20:53:58.339Z,101068.59
2017-05-13T20:56:25.887Z,101067.08
2017-05-13T20:58:53.469Z,101067.14
2017-05-13T21:01:21.076Z,101067.30
2017-05-13T21:03:48.620Z,101071.63
2017-05-13T21:06:16.337Z,101077.73
2017-05-13T21:08:43.849Z,101082.33
2017-05-13T21:11:11.395Z,101082.84
2017-05-13T21:13:38.949Z,101092.65
2017-05-13T21:16:06.468Z,101086.64
2017-05-13T21:18:34.231Z,101090.30
2017-05-13T21:21:01.752Z,101087.08
2017-05-13T21:23:29.313Z,101095.63
2017-05-13T21:25:56.866Z,101099.08
2017-05-13T21:28:24.376Z,101101.30
2017-05-13T21:30:52.042Z,101105.02
2017-05-13T21:33:19.567Z,101102.77
2017-05-13T21:35:47.083Z,101111.80
2017-05-13T21:38:14.760Z,101112.72
2017-05-13T21:40:42.311Z,101123.08
2017-05-13T21:43:09.926Z,101122.59
2017-05-13T21:45:37.472Z,101120.90
2017-05-13T21:48:05.008Z,101123.05
2017-05-13T21:50:32.677Z,101126.71
2017-05-13T21:53:00.231Z,101120.80
2017-05-13T21:55:27.789Z,101125.91
2017-05-13T21:57:55.321Z,101132.86
2017-05-13T22:00:22.995Z,101131.40
2017-05-13T22:02:50.551Z,101138.41
2017-05-13T22:05:18.063Z,101138.03
2017-05-13T22:07:45.790Z,101146.06
2017-05-13T22:10:13.319Z,101140.48
2017-05-13T22:12:40.854Z,101144.54
2017-05-13T22:15:08.775Z,101140.82
2017-05-13T22:17:36.281Z,101143.61
2017-05-13T22:20:03.796Z,101152.54
2017-05-13T22:22:31.353Z,101151.03
2017-05-13T22:24:58.933Z,101154.66
2017-05-13T22:27:26.695Z,101154.35
2017-05-13T22:29:54.216Z,101167.33
2017-05-13T22:32:21.747Z,101166.39
2017-05-13T22:34:49.324Z,101165.11
2017-05-13T22:37:16.840Z,101172.28
2017-05-13T22:39:44.550Z,101169.02
2017-05-13T22:42:12.082Z,101168.47
2017-05-13T22:44:39.604Z,101165.09
2017-05-13T22:47:07.212Z,101165.73
2017-05-13T22:49:34.728Z,101167.59
2017-05-13T22:52:02.709Z,101170.31
2017-05-13T22:54:30.250Z,101175.84
2017-05-13T22:56:57.780Z,101175.42
2017-05-13T22:59:25.430Z,101186.89
2017-05-13T23:01:52.951Z,101185.31
2017-05-13T23:04:20.471Z,101180.75
2017-05-13T23:06:48.144Z,101190.95
2017-05-13T23:09:15.669Z,101184.72
2017-05-13T23:11:43.183Z,101189.47
2017-05-13T23:14:10.792Z,101190.38
2017-05-13T23:16:38.324Z,101187.66
2017-05-13T23:19:06.039Z,101195.08
2017-05-13T23:21:33.560Z,101186.99
2017-05-13T23:24:01.078Z,101183.11
2017-05-13T23:26:28.637Z,101188.92
2017-05-13T23:28:56.175Z,101184.17
2017-05-13T23:31:23.736Z,101183.64
2017-05-13T23:33:51.276Z,101190.02
2017-05-13T23:36:18.968Z,101195.17
2017-05-13T23:38:46.679Z,101197.54
2017-05-13T23:41:14.254Z,101198.59
2017-05-13T23:43:42.072Z,101201.94
2017-05-13T23:46:09.614Z,101204.69
2017-05-13T23:48:37.115Z,101210.34
2017-05-13T23:51:04.685Z,101213.19
2017-05-13T23:53:32.233Z,101209.77
2017-05-13T23:55:59.855Z,101208.83
2017-05-13T23:58:27.383Z,101205.59
